Strona główna
METAR-TAF:

METAR-TAF

Lotnisko :

Valence, Francja

Szerokość geograficzna: 44-54-58N, Długość geograficzna: 4-58-06E, wysokość: 160 m

Aktualna obserwacja pogody

Raport powstał 6 godziny i 38 minut temu, godzina 18:00 UTC
Wiatr 12 kt od południe
Temperatura 35°C
Wilgotność 30%
Ciśnienie 1015 hPa
Widzialność 10 km lub więcej

METAR: LFLU 231800Z AUTO 18012KT 9999 ///TCU 35/15 Q1015

czas: 02:38 (00:38 UTC)


TAF: brakujący

Obserwacja i prognoza pogody dla ponad 4000 lotnisk (raport METAR i TAF).

Dostępne stacje oznaczono żółtymi i czerwonymi punktami na mapie.

Najedź kursorem aby zobaczyć nazwę stacji.

Kliknij aby zobaczyć obserwacje i prognozy pogody.

Aby zmienić mapę: kliknij na zielony przycisk z czarnym krzyżykiem, aby powiększyć; na zielony przycisk z myślnikiem, aby pomniejszyć; na zielone strzałki, aby przejść do map sąsiednich.


METAR-TAF: